RJSR METAR and TAF | Updated Today

RJSR METAR

Odate Noshiro Airport

Observation time: 8:46 hr. ago

RJSR 251000Z VRB02KT 9999 FEW040 SCT/// 21/10 Q1010

Need help? Read our tutorial on how to read METARs or read the parsed version below.

Odate Noshiro Airport (RJSR) METAR

  • Weather conditions on Wed, 25 May 2022 10:00:00 +0000 (8:46 hr. ago):
  • Present conditions: Dry
  • Clouds: A few at 1219 meters; scattered
  • Visibility: Greater than 10 km
  • Wind: Variable at 2 knots
  • Temperature: 21 celsius
  • Dew point: 10 celsius
  • Pressure: 1010 millibars
  • Remarks: None


Useful to know...